Time;durP1;ratioP1;P1;durP2;ratioP2;P2;SDS_P1;SDS_P2;PMS_P1;PMS_P2;Temp;Humidity;BMP_temperature;BMP_pressure;BME280_temperature;BME280_humidity;BME280_pressure;Samples;Min_cycle;Max_cycle;Signal;HPM_P1;HPM_P2
2022/01/05 00:00:12;;;;;;;0.50;0.50;;;0.40;99.90;;;;;;5072817;28;20696;-75
2022/01/05 00:02:39;;;;;;;0.52;0.52;;;0.40;99.90;;;;;;5072647;28;20240;-75
2022/01/05 00:05:06;;;;;;;0.60;0.60;;;0.40;99.90;;;;;;5071752;28;20200;-75
2022/01/05 00:07:32;;;;;;;0.75;0.75;;;0.40;99.90;;;;;;5071428;28;20279;-75
2022/01/05 00:09:58;;;;;;;0.77;0.77;;;0.40;99.90;;;;;;5071655;28;20281;-75
2022/01/05 00:12:24;;;;;;;0.70;0.70;;;0.40;99.90;;;;;;5072686;28;20266;-75
2022/01/05 00:14:50;;;;;;;1.00;1.00;;;0.40;99.90;;;;;;5071906;28;20189;-75
2022/01/05 00:17:16;;;;;;;0.60;0.60;;;0.40;99.90;;;;;;5072012;28;20291;-75
2022/01/05 00:19:43;;;;;;;0.60;0.60;;;0.40;99.90;;;;;;5053288;28;20205;-75
2022/01/05 00:22:10;;;;;;;0.50;0.50;;;0.40;99.90;;;;;;5054905;28;20205;-75
2022/01/05 00:24:36;;;;;;;0.60;0.60;;;0.40;99.90;;;;;;5071177;28;20250;-75
2022/01/05 00:27:02;;;;;;;0.70;0.70;;;0.40;99.90;;;;;;5054373;28;20275;-76
2022/01/05 00:29:28;;;;;;;0.60;0.60;;;0.50;99.90;;;;;;5071051;28;20213;-76
2022/01/05 00:31:54;;;;;;;0.57;0.57;;;0.50;99.90;;;;;;5054568;28;20262;-76
2022/01/05 00:34:20;;;;;;;0.63;0.63;;;0.50;99.90;;;;;;5070834;28;20212;-75
2022/01/05 00:36:46;;;;;;;0.70;0.70;;;0.60;99.90;;;;;;5071996;28;20212;-75
2022/01/05 00:39:11;;;;;;;0.60;0.60;;;0.50;99.90;;;;;;5070904;28;20232;-76
2022/01/05 00:41:37;;;;;;;0.70;0.70;;;0.50;99.90;;;;;;5070689;28;20218;-75
2022/01/05 00:44:03;;;;;;;0.60;0.60;;;0.50;99.90;;;;;;5071210;28;20231;-75
2022/01/05 00:46:28;;;;;;;0.65;0.65;;;0.50;99.90;;;;;;5071686;28;20216;-75
2022/01/05 00:48:54;;;;;;;0.50;0.50;;;0.50;99.90;;;;;;5071030;28;20204;-75
2022/01/05 00:51:20;;;;;;;0.57;0.57;;;0.50;99.90;;;;;;5053677;28;20234;-75
2022/01/05 00:53:45;;;;;;;0.70;0.70;;;0.50;99.90;;;;;;5070858;28;20263;-75
2022/01/05 00:56:11;;;;;;;0.60;0.60;;;0.50;99.90;;;;;;5071717;28;20211;-75
2022/01/05 00:58:37;;;;;;;0.60;0.60;;;0.50;99.90;;;;;;5039016;28;20201;-75
2022/01/05 01:01:03;;;;;;;0.70;0.70;;;0.50;99.90;;;;;;5071872;28;20193;-76
2022/01/05 01:03:29;;;;;;;0.60;0.60;;;0.50;99.90;;;;;;5070857;28;20228;-75
2022/01/05 01:05:55;;;;;;;0.60;0.60;;;0.50;99.90;;;;;;5070579;28;20209;-76
2022/01/05 01:08:21;;;;;;;0.60;0.60;;;0.50;99.90;;;;;;5071901;28;20283;-75
2022/01/05 01:10:49;;;;;;;2.53;1.42;;;0.50;99.90;;;;;;5054695;28;20205;-75
2022/01/05 01:13:17;;;;;;;0.68;0.68;;;0.50;99.90;;;;;;5054726;28;20212;-75
2022/01/05 01:15:52;;;;;;;1.30;1.20;;;0.40;99.90;;;;;;5068410;28;20192;-75
2022/01/05 01:18:19;;;;;;;0.70;0.70;;;0.40;99.90;;;;;;5070245;28;20219;-76
2022/01/05 01:20:47;;;;;;;0.60;0.60;;;0.40;99.90;;;;;;5054409;28;20201;-76
2022/01/05 01:23:13;;;;;;;0.68;0.68;;;0.40;99.90;;;;;;5070389;28;20228;-75
2022/01/05 01:25:39;;;;;;;0.65;0.65;;;0.40;99.90;;;;;;5071336;28;20240;-75
2022/01/05 01:28:04;;;;;;;0.70;0.70;;;0.30;99.90;;;;;;5070449;28;20208;-75
2022/01/05 01:30:31;;;;;;;0.70;0.70;;;0.30;99.90;;;;;;5071217;28;20706;-75
2022/01/05 01:32:58;;;;;;;0.60;0.60;;;0.30;99.90;;;;;;5070449;28;20201;-75
2022/01/05 01:35:25;;;;;;;0.70;0.70;;;0.40;99.90;;;;;;5071411;28;20292;-75
2022/01/05 01:37:51;;;;;;;0.65;0.65;;;0.30;99.90;;;;;;5070299;28;20636;-75
2022/01/05 01:40:18;;;;;;;0.70;0.70;;;0.30;99.90;;;;;;5071326;28;20595;-75
2022/01/05 01:42:44;;;;;;;0.60;0.60;;;0.30;99.90;;;;;;5070112;28;20193;-75
2022/01/05 01:45:10;;;;;;;0.70;0.70;;;0.30;99.90;;;;;;5072459;28;20223;-75
2022/01/05 01:47:36;;;;;;;0.70;0.70;;;0.20;99.90;;;;;;5057413;28;20239;-75
2022/01/05 01:50:02;;;;;;;0.50;0.50;;;0.20;99.90;;;;;;5074283;28;20228;-76
2022/01/05 01:52:28;;;;;;;0.55;0.55;;;0.20;99.90;;;;;;5056048;28;20205;-75
2022/01/05 01:54:54;;;;;;;0.70;0.70;;;0.10;99.90;;;;;;5075539;28;20196;-75
2022/01/05 01:57:20;;;;;;;0.70;0.70;;;0.00;99.90;;;;;;5069131;28;20209;-75
2022/01/05 01:59:47;;;;;;;0.65;0.65;;;0.00;99.90;;;;;;5075498;28;20201;-76
2022/01/05 02:02:15;;;;;;;0.80;0.80;;;-0.10;99.90;;;;;;5074788;28;20209;-75
2022/01/05 02:04:43;;;;;;;0.60;0.60;;;-0.20;99.90;;;;;;5074341;28;20232;-75
2022/01/05 02:07:08;;;;;;;0.70;0.70;;;-0.20;99.90;;;;;;5073945;28;20576;-75
2022/01/05 02:09:34;;;;;;;0.60;0.60;;;-0.30;99.90;;;;;;5074877;28;20254;-76
2022/01/05 02:12:00;;;;;;;0.50;0.50;;;-0.30;99.90;;;;;;5073207;28;20258;-76
2022/01/05 02:14:26;;;;;;;0.55;0.55;;;-0.20;99.90;;;;;;5055671;28;20208;-75
2022/01/05 02:16:52;;;;;;;0.75;0.75;;;-0.20;99.90;;;;;;5057713;28;20211;-75
2022/01/05 02:19:18;;;;;;;0.50;0.50;;;-0.30;99.90;;;;;;5073667;28;20280;-75
2022/01/05 02:21:43;;;;;;;0.52;0.52;;;-0.30;99.90;;;;;;5073522;28;20223;-75
2022/01/05 02:24:10;;;;;;;0.60;0.60;;;-0.30;99.90;;;;;;5057546;28;20283;-75
2022/01/05 02:26:36;;;;;;;0.50;0.50;;;-0.30;99.90;;;;;;5056757;28;20244;-75
2022/01/05 02:29:04;;;;;;;0.60;0.60;;;-0.40;99.90;;;;;;5073643;28;20201;-76
2022/01/05 02:31:29;;;;;;;0.82;0.82;;;-0.40;99.90;;;;;;5056424;28;20216;-76
2022/01/05 02:33:55;;;;;;;0.70;0.70;;;-0.50;99.90;;;;;;5056632;28;20196;-74
2022/01/05 02:36:21;;;;;;;0.60;0.60;;;-0.50;99.90;;;;;;5056615;28;20241;-76
2022/01/05 02:38:48;;;;;;;0.50;0.50;;;-0.50;99.90;;;;;;5073088;28;20189;-76
2022/01/05 02:41:14;;;;;;;0.47;0.47;;;-0.50;99.90;;;;;;5054208;28;20232;-76
2022/01/05 02:43:41;;;;;;;0.75;0.75;;;-0.40;99.90;;;;;;5073391;28;20672;-76
2022/01/05 02:46:20;;;;;;;0.68;0.68;;;-0.40;99.90;;;;;;5055359;28;20200;-74
2022/01/05 02:48:51;;;;;;;0.65;0.65;;;-0.40;99.90;;;;;;5056121;28;21289;-74
2022/01/05 02:51:17;;;;;;;0.60;0.60;;;-0.30;99.90;;;;;;5055751;28;20197;-75
2022/01/05 02:53:43;;;;;;;0.60;0.60;;;-0.30;99.90;;;;;;5072611;28;20201;-74
2022/01/05 02:56:09;;;;;;;0.60;0.60;;;-0.30;99.90;;;;;;5071728;28;20196;-74
2022/01/05 02:58:35;;;;;;;0.50;0.50;;;-0.30;99.90;;;;;;5071944;28;20561;-74
2022/01/05 03:01:02;;;;;;;0.70;0.70;;;-0.30;99.90;;;;;;5065633;28;20691;-76
2022/01/05 03:03:28;;;;;;;0.90;0.90;;;-0.30;99.90;;;;;;5069809;28;20205;-74
2022/01/05 03:05:53;;;;;;;0.50;0.50;;;-0.30;99.90;;;;;;5071794;28;20550;-74
2022/01/05 03:08:19;;;;;;;0.70;0.70;;;-0.30;99.90;;;;;;5069710;28;20208;-74
2022/01/05 03:10:44;;;;;;;0.60;0.60;;;-0.20;99.90;;;;;;5057819;28;20592;-73
2022/01/05 03:13:10;;;;;;;0.70;0.70;;;-0.30;99.90;;;;;;5055880;28;20209;-74
2022/01/05 03:15:36;;;;;;;0.70;0.70;;;-0.30;99.90;;;;;;5055455;28;20205;-74
2022/01/05 03:18:03;;;;;;;0.70;0.70;;;-0.30;99.90;;;;;;5054508;28;20201;-75
2022/01/05 03:20:30;;;;;;;0.70;0.70;;;-0.30;99.90;;;;;;5053444;28;20582;-74
2022/01/05 03:22:59;;;;;;;0.60;0.60;;;-0.30;99.90;;;;;;5054524;28;20568;-74
2022/01/05 03:25:25;;;;;;;0.60;0.60;;;-0.30;99.90;;;;;;5071868;28;20777;-75
2022/01/05 03:27:53;;;;;;;0.60;0.60;;;-0.20;99.90;;;;;;5071835;28;20223;-75
2022/01/05 03:30:25;;;;;;;0.70;0.70;;;-0.20;99.90;;;;;;5071446;28;20695;-76
2022/01/05 03:35:32;;;;;;;0.60;0.60;;;-0.20;99.90;;;;;;5072542;28;20209;-74
2022/01/05 03:37:59;;;;;;;0.60;0.60;;;-0.30;99.90;;;;;;5072473;28;20665;-75
2022/01/05 03:40:25;;;;;;;0.65;0.65;;;-0.30;99.90;;;;;;5028111;28;1245631;-75
2022/01/05 03:42:51;;;;;;;0.70;0.70;;;-0.30;99.90;;;;;;5055236;28;20193;-75
2022/01/05 03:45:17;;;;;;;0.70;0.70;;;-0.30;99.90;;;;;;5072331;28;20575;-75
2022/01/05 03:47:43;;;;;;;0.70;0.70;;;-0.30;99.90;;;;;;5072964;28;20234;-75
2022/01/05 03:50:10;;;;;;;0.80;0.80;;;-0.40;99.90;;;;;;5073274;28;20227;-72
2022/01/05 03:52:35;;;;;;;0.80;0.80;;;-0.30;99.90;;;;;;5071793;28;20192;-75
2022/01/05 03:55:03;;;;;;;0.80;0.80;;;-0.40;99.90;;;;;;5071995;28;20193;-72
2022/01/05 03:57:29;;;;;;;0.70;0.70;;;-0.30;99.90;;;;;;5073193;28;20239;-74
2022/01/05 03:59:54;;;;;;;0.70;0.70;;;-0.30;99.90;;;;;;5055832;28;20622;-74
2022/01/05 04:02:21;;;;;;;0.60;0.60;;;-0.30;99.90;;;;;;5071515;28;20323;-73
2022/01/05 04:04:46;;;;;;;0.70;0.70;;;-0.20;99.90;;;;;;5072736;28;20326;-74
2022/01/05 04:07:13;;;;;;;0.73;0.73;;;-0.20;99.90;;;;;;5071276;28;20247;-74
2022/01/05 04:09:39;;;;;;;0.60;0.60;;;-0.20;99.90;;;;;;5071986;28;20205;-74
2022/01/05 04:12:05;;;;;;;0.60;0.60;;;-0.30;99.90;;;;;;5071697;28;20242;-75
2022/01/05 04:14:31;;;;;;;0.70;0.70;;;-0.30;99.90;;;;;;5071649;28;20209;-74
2022/01/05 04:16:56;;;;;;;0.60;0.60;;;-0.30;99.90;;;;;;5072332;28;20208;-73
2022/01/05 04:19:23;;;;;;;0.70;0.70;;;-0.20;99.90;;;;;;5072216;28;20204;-73
2022/01/05 04:21:49;;;;;;;0.60;0.60;;;-0.30;99.90;;;;;;5071274;28;20318;-74
2022/01/05 04:24:15;;;;;;;0.50;0.50;;;-0.20;99.90;;;;;;5071232;28;20196;-73
2022/01/05 04:26:41;;;;;;;0.70;0.70;;;-0.20;99.90;;;;;;5071116;28;20215;-73
2022/01/05 04:29:07;;;;;;;0.70;0.70;;;-0.20;99.90;;;;;;5071103;28;20216;-75
2022/01/05 04:31:32;;;;;;;0.60;0.60;;;-0.20;99.90;;;;;;5054094;28;20287;-74
2022/01/05 04:33:58;;;;;;;0.60;0.60;;;-0.30;99.90;;;;;;5071128;28;20193;-75
2022/01/05 04:36:24;;;;;;;0.70;0.70;;;-0.30;99.90;;;;;;5070751;28;20713;-74
2022/01/05 04:38:49;;;;;;;0.60;0.60;;;-0.30;99.90;;;;;;5053962;28;20200;-75
2022/01/05 04:41:15;;;;;;;1.15;1.13;;;-0.40;99.90;;;;;;5071076;28;20200;-75
2022/01/05 04:43:41;;;;;;;0.80;0.80;;;-0.40;99.90;;;;;;5071156;28;20197;-75
2022/01/05 04:46:06;;;;;;;0.80;0.80;;;-0.30;99.90;;;;;;5071127;28;20200;-75
2022/01/05 04:48:32;;;;;;;0.70;0.70;;;-0.30;99.90;;;;;;5068316;28;20197;-75
2022/01/05 04:50:58;;;;;;;0.70;0.70;;;-0.30;99.90;;;;;;5053163;28;20234;-75
2022/01/05 04:53:23;;;;;;;0.52;0.52;;;-0.30;99.90;;;;;;5069375;28;20597;-75
2022/01/05 04:55:49;;;;;;;0.60;0.60;;;-0.30;99.90;;;;;;5071325;28;20558;-75
2022/01/05 04:58:15;;;;;;;1.33;1.23;;;-0.30;99.90;;;;;;5054903;28;20209;-75
2022/01/05 05:00:41;;;;;;;0.77;0.77;;;-0.30;99.90;;;;;;5054281;28;20204;-75
2022/01/05 05:03:06;;;;;;;1.42;1.33;;;-0.30;99.90;;;;;;5053775;28;20564;-75
2022/01/05 05:05:34;;;;;;;0.70;0.70;;;-0.20;99.90;;;;;;5070527;28;20208;-75
2022/01/05 05:08:00;;;;;;;0.70;0.70;;;-0.20;99.90;;;;;;5071750;28;20197;-75
2022/01/05 05:10:26;;;;;;;0.60;0.60;;;-0.20;99.90;;;;;;5070349;28;20575;-75
2022/01/05 05:12:51;;;;;;;0.50;0.50;;;-0.10;99.90;;;;;;5053770;28;20237;-75
2022/01/05 05:15:17;;;;;;;0.70;0.70;;;-0.20;99.90;;;;;;5053524;28;20702;-75
2022/01/05 05:17:43;;;;;;;0.80;0.80;;;-0.20;99.90;;;;;;5071404;28;20695;-74
2022/01/05 05:20:09;;;;;;;0.70;0.70;;;-0.20;99.90;;;;;;5070362;28;20728;-75
2022/01/05 05:22:35;;;;;;;0.80;0.80;;;-0.20;99.90;;;;;;5070189;28;20205;-75
2022/01/05 05:25:02;;;;;;;0.70;0.70;;;-0.20;99.90;;;;;;5070557;28;20207;-75
2022/01/05 05:27:29;;;;;;;4.28;1.42;;;-0.20;99.90;;;;;;5053416;28;20220;-75
2022/01/05 05:29:54;;;;;;;1.23;1.17;;;-0.20;99.90;;;;;;5071492;28;20200;-75
2022/01/05 05:32:20;;;;;;;0.60;0.60;;;-0.20;99.90;;;;;;5070079;28;20201;-75
2022/01/05 05:34:46;;;;;;;0.60;0.60;;;-0.20;99.90;;;;;;5071473;28;20276;-75
2022/01/05 05:37:11;;;;;;;0.70;0.70;;;-0.20;99.90;;;;;;5071284;28;20208;-75
2022/01/05 05:39:37;;;;;;;0.60;0.60;;;-0.20;99.90;;;;;;5071009;28;20263;-76
2022/01/05 05:42:03;;;;;;;0.60;0.60;;;-0.20;99.90;;;;;;5052711;28;20659;-75
2022/01/05 05:44:29;;;;;;;0.60;0.60;;;-0.20;99.90;;;;;;5070667;28;20616;-75
2022/01/05 05:46:55;;;;;;;0.60;0.60;;;-0.20;99.90;;;;;;5070474;28;20317;-75
2022/01/05 05:49:20;;;;;;;0.60;0.60;;;-0.10;99.90;;;;;;5054627;28;20216;-76
2022/01/05 05:51:46;;;;;;;0.60;0.60;;;-0.10;99.90;;;;;;5053699;28;20227;-75
2022/01/05 05:54:12;;;;;;;0.90;0.90;;;-0.10;99.90;;;;;;5071299;28;20211;-75
2022/01/05 05:56:37;;;;;;;0.60;0.60;;;-0.10;99.90;;;;;;5067741;28;20238;-74
2022/01/05 05:59:03;;;;;;;0.60;0.60;;;-0.10;99.90;;;;;;5049896;28;20204;-75
2022/01/05 06:01:29;;;;;;;0.60;0.60;;;-0.10;99.90;;;;;;5053770;28;20219;-75
2022/01/05 06:03:55;;;;;;;0.60;0.60;;;-0.10;99.90;;;;;;5054259;28;20201;-75
2022/01/05 06:06:21;;;;;;;0.70;0.70;;;-0.10;99.90;;;;;;5054062;28;20208;-75
2022/01/05 06:08:47;;;;;;;1.52;1.42;;;-0.10;99.90;;;;;;5053161;28;20201;-75
2022/01/05 06:11:12;;;;;;;0.70;0.70;;;-0.10;99.90;;;;;;5070870;28;20274;-75
2022/01/05 06:13:38;;;;;;;0.50;0.50;;;-0.10;99.90;;;;;;5070832;28;20327;-75
2022/01/05 06:16:04;;;;;;;0.70;0.70;;;-0.20;99.90;;;;;;5070981;28;20270;-75
2022/01/05 06:18:30;;;;;;;0.70;0.70;;;-0.20;99.90;;;;;;5052752;28;20201;-75
2022/01/05 06:20:56;;;;;;;0.73;0.73;;;-0.20;99.90;;;;;;5069753;28;20197;-75
2022/01/05 06:23:21;;;;;;;0.73;0.73;;;-0.30;99.90;;;;;;5052653;28;20226;-75
2022/01/05 06:25:47;;;;;;;0.65;0.65;;;-0.30;99.90;;;;;;5070972;28;20198;-75
2022/01/05 06:28:13;;;;;;;0.70;0.70;;;-0.30;99.90;;;;;;5070978;28;20197;-74
2022/01/05 06:30:39;;;;;;;0.60;0.60;;;-0.30;99.90;;;;;;5071927;28;20564;-75
2022/01/05 06:33:05;;;;;;;1.45;1.35;;;-0.30;99.90;;;;;;5057859;28;20213;-75
2022/01/05 06:35:31;;;;;;;0.70;0.70;;;-0.30;99.90;;;;;;5074583;28;20266;-75
2022/01/05 06:37:57;;;;;;;0.60;0.60;;;-0.30;99.90;;;;;;5074406;28;20671;-75
2022/01/05 06:40:24;;;;;;;0.63;0.63;;;-0.30;99.90;;;;;;5057103;28;20216;-75
2022/01/05 06:42:50;;;;;;;0.55;0.55;;;-0.30;99.90;;;;;;5073474;28;20247;-75
2022/01/05 06:45:15;;;;;;;0.85;0.85;;;-0.30;99.90;;;;;;5073405;28;20241;-76
2022/01/05 06:47:41;;;;;;;0.70;0.70;;;-0.30;99.90;;;;;;5073145;28;20593;-76
2022/01/05 06:50:08;;;;;;;0.63;0.63;;;-0.20;99.90;;;;;;5074224;28;20568;-76
2022/01/05 06:52:34;;;;;;;0.70;0.70;;;-0.20;99.90;;;;;;5054918;28;20204;-76
2022/01/05 06:55:00;;;;;;;1.00;1.00;;;-0.20;99.90;;;;;;5072460;28;20204;-75
2022/01/05 06:57:26;;;;;;;0.65;0.65;;;-0.30;99.90;;;;;;5072518;28;20287;-75
2022/01/05 06:59:51;;;;;;;1.00;1.00;;;-0.20;99.90;;;;;;5074166;28;20236;-75
2022/01/05 07:02:17;;;;;;;0.77;0.77;;;-0.30;99.90;;;;;;5072739;28;20208;-74
2022/01/05 07:04:43;;;;;;;0.60;0.60;;;-0.40;99.90;;;;;;5072905;28;20215;-75
2022/01/05 07:07:08;;;;;;;0.73;0.73;;;-0.50;99.90;;;;;;5072583;28;20583;-74
2022/01/05 07:09:34;;;;;;;0.90;0.90;;;-0.60;99.90;;;;;;5073822;28;20204;-75
2022/01/05 07:12:00;;;;;;;0.68;0.68;;;-0.70;99.90;;;;;;5073226;28;20205;-74
2022/01/05 07:14:25;;;;;;;0.70;0.70;;;-0.70;99.90;;;;;;5071845;28;20200;-76
2022/01/05 07:16:51;;;;;;;0.75;0.75;;;-0.80;99.90;;;;;;5058008;28;20296;-75
2022/01/05 07:19:19;;;;;;;0.70;0.70;;;-0.90;99.90;;;;;;5073049;28;20539;-76
2022/01/05 07:21:46;;;;;;;0.70;0.70;;;-1.00;99.90;;;;;;5073889;28;20205;-76
2022/01/05 07:24:16;;;;;;;0.52;0.52;;;-1.10;99.90;;;;;;5047067;28;20185;-76
2022/01/05 07:26:42;;;;;;;0.70;0.70;;;-1.20;99.90;;;;;;5071183;28;20200;-76
2022/01/05 07:29:07;;;;;;;0.70;0.70;;;-1.20;99.90;;;;;;5055677;28;20247;-76
2022/01/05 07:31:33;;;;;;;0.60;0.60;;;-1.30;99.90;;;;;;5073054;28;20213;-75
2022/01/05 07:33:59;;;;;;;0.80;0.80;;;-1.40;99.90;;;;;;5073799;28;20208;-75
2022/01/05 07:36:25;;;;;;;0.80;0.80;;;-1.50;99.90;;;;;;5072980;28;20212;-75
2022/01/05 07:38:51;;;;;;;0.75;0.75;;;-1.50;99.90;;;;;;5072105;28;20566;-75
2022/01/05 07:41:17;;;;;;;0.80;0.80;;;-1.60;99.90;;;;;;5071736;28;20212;-75
2022/01/05 07:43:42;;;;;;;1.60;1.50;;;-1.60;99.90;;;;;;5071503;28;20197;-75
2022/01/05 07:46:08;;;;;;;0.70;0.70;;;-1.60;99.90;;;;;;5072102;28;20215;-75
2022/01/05 07:48:33;;;;;;;0.80;0.80;;;-1.60;99.90;;;;;;5072870;28;20209;-76
2022/01/05 07:50:59;;;;;;;0.70;0.70;;;-1.60;99.90;;;;;;5072864;28;20204;-75
2022/01/05 07:53:25;;;;;;;0.70;0.70;;;-1.60;99.90;;;;;;5072700;28;20208;-75
2022/01/05 07:55:51;;;;;;;0.70;0.70;;;-1.50;99.90;;;;;;5071821;28;20239;-75
2022/01/05 07:58:16;;;;;;;0.70;0.70;;;-1.50;99.90;;;;;;5048684;28;20217;-73
2022/01/05 08:00:42;;;;;;;0.60;0.60;;;-1.50;99.90;;;;;;5072548;28;20207;-75
2022/01/05 08:03:08;;;;;;;0.80;0.80;;;-1.50;99.90;;;;;;5071629;28;20205;-75
2022/01/05 08:05:33;;;;;;;0.80;0.80;;;-1.40;99.90;;;;;;5054812;28;20200;-75
2022/01/05 08:07:59;;;;;;;0.80;0.80;;;-1.30;99.90;;;;;;5071691;28;20200;-75
2022/01/05 08:10:25;;;;;;;0.70;0.70;;;-1.20;99.90;;;;;;5053436;28;20201;-75
2022/01/05 08:12:50;;;;;;;0.80;0.80;;;-1.20;99.90;;;;;;5053720;28;20254;-75
2022/01/05 08:15:16;;;;;;;0.75;0.75;;;-1.10;99.90;;;;;;5072746;28;20550;-75
2022/01/05 08:17:45;;;;;;;1.05;1.05;;;-1.10;99.90;;;;;;5071642;28;20292;-75
2022/01/05 08:20:11;;;;;;;0.65;0.65;;;-1.00;99.90;;;;;;5071696;28;20236;-75
2022/01/05 08:22:40;;;;;;;0.80;0.80;;;-0.90;99.90;;;;;;5054213;28;20332;-74
2022/01/05 08:25:07;;;;;;;0.75;0.75;;;-0.80;99.90;;;;;;5071383;28;20285;-74
2022/01/05 08:27:33;;;;;;;0.70;0.70;;;-0.80;99.90;;;;;;5071156;28;20229;-75
2022/01/05 08:30:04;;;;;;;0.85;0.85;;;-0.70;99.90;;;;;;5072407;28;20239;-75
2022/01/05 08:32:30;;;;;;;0.70;0.70;;;-0.70;99.90;;;;;;5072033;28;20667;-74
2022/01/05 08:34:55;;;;;;;0.70;0.70;;;-0.60;99.90;;;;;;5071186;28;20575;-74
2022/01/05 08:37:21;;;;;;;0.60;0.60;;;-0.50;99.90;;;;;;5057618;28;20204;-75
2022/01/05 08:39:50;;;;;;;0.90;0.90;;;-0.50;99.90;;;;;;5039301;28;20226;-74
2022/01/05 08:42:16;;;;;;;0.73;0.73;;;-0.50;99.90;;;;;;5029901;28;20315;-74
2022/01/05 08:44:41;;;;;;;0.70;0.70;;;-0.50;99.90;;;;;;5029651;28;20206;-75
2022/01/05 08:47:10;;;;;;;0.70;0.70;;;-0.40;99.90;;;;;;5031008;28;20577;-75
2022/01/05 08:49:36;;;;;;;0.70;0.70;;;-0.40;99.90;;;;;;5030880;28;20226;-76
2022/01/05 08:52:02;;;;;;;0.50;0.50;;;-0.40;99.90;;;;;;5032057;28;20198;-75
2022/01/05 08:54:28;;;;;;;0.60;0.60;;;-0.30;99.90;;;;;;5030129;28;20206;-75
2022/01/05 08:56:54;;;;;;;0.63;0.63;;;-0.40;99.90;;;;;;5025309;28;20233;-75
2022/01/05 08:59:20;;;;;;;0.80;0.80;;;-0.40;99.90;;;;;;5016871;28;20202;-75
2022/01/05 09:01:46;;;;;;;0.70;0.70;;;-0.40;99.90;;;;;;5031687;28;20204;-75
2022/01/05 09:04:12;;;;;;;0.70;0.70;;;-0.40;99.90;;;;;;5032005;28;20289;-75
2022/01/05 09:06:38;;;;;;;0.57;0.57;;;-0.40;99.90;;;;;;5031210;28;20198;-76
2022/01/05 09:09:04;;;;;;;0.70;0.70;;;-0.40;99.90;;;;;;5032385;28;20654;-75
2022/01/05 09:11:29;;;;;;;0.63;0.63;;;-0.40;99.90;;;;;;5030485;28;20209;-75
2022/01/05 09:13:55;;;;;;;1.00;0.95;;;-0.40;99.90;;;;;;5030193;28;20198;-75
2022/01/05 09:16:21;;;;;;;0.60;0.60;;;-0.40;99.90;;;;;;5031635;28;20236;-75
2022/01/05 09:18:47;;;;;;;0.90;0.90;;;-0.50;99.90;;;;;;5030515;28;20591;-75
2022/01/05 09:21:13;;;;;;;0.80;0.80;;;-0.50;99.90;;;;;;5030671;28;20684;-75
2022/01/05 09:23:39;;;;;;;0.60;0.60;;;-0.40;99.90;;;;;;5030550;28;20653;-76
2022/01/05 09:26:05;;;;;;;0.70;0.70;;;-0.40;99.90;;;;;;5017077;28;20213;-76
2022/01/05 09:28:30;;;;;;;0.95;0.95;;;-0.30;99.90;;;;;;5027769;28;20204;-75
2022/01/05 09:30:56;;;;;;;0.70;0.70;;;-0.30;99.90;;;;;;5031686;28;20221;-75
2022/01/05 09:33:23;;;;;;;0.70;0.70;;;-0.30;99.90;;;;;;5031504;28;20688;-75
2022/01/05 09:35:50;;;;;;;0.77;0.77;;;-0.30;99.90;;;;;;5030708;28;20213;-74
2022/01/05 09:43:55;;;;;;;0.70;0.70;;;-0.30;99.90;;;;;;5030426;28;20220;-75
2022/01/05 09:47:05;;;;;;;1.05;1.05;;;-0.20;99.90;;;;;;5030413;28;20208;-75
2022/01/05 09:49:40;;;;;;;0.60;0.60;;;-0.30;99.90;;;;;;4970230;28;20231;-75
2022/01/05 09:52:09;;;;;;;0.70;0.70;;;-0.30;99.90;;;;;;4969849;28;20645;-75
2022/01/05 09:54:36;;;;;;;0.60;0.60;;;-0.30;99.90;;;;;;4970295;28;20236;-76
2022/01/05 09:57:05;;;;;;;0.60;0.60;;;-0.30;99.90;;;;;;4954051;28;20702;-76
2022/01/05 09:59:34;;;;;;;0.60;0.60;;;-0.30;99.90;;;;;;4970112;28;20203;-76
2022/01/05 10:02:02;;;;;;;0.60;0.60;;;-0.20;99.90;;;;;;4970304;28;20231;-76
2022/01/05 10:04:28;;;;;;;0.60;0.60;;;-0.30;99.90;;;;;;4970310;28;20684;-76
2022/01/05 10:06:54;;;;;;;0.70;0.70;;;-0.30;99.90;;;;;;4955159;28;20290;-76
2022/01/05 10:09:20;;;;;;;0.60;0.60;;;-0.30;99.90;;;;;;4974049;28;20302;-75
2022/01/05 10:11:46;;;;;;;0.70;0.70;;;-0.40;99.90;;;;;;4972716;28;20230;-75
2022/01/05 10:14:13;;;;;;;0.73;0.73;;;-0.40;99.90;;;;;;4974118;28;20328;-75
2022/01/05 10:16:40;;;;;;;0.70;0.70;;;-0.40;99.90;;;;;;4975373;28;20227;-76
2022/01/05 10:19:06;;;;;;;0.80;0.80;;;-0.50;99.90;;;;;;4974255;28;20214;-75
2022/01/05 10:21:38;;;;;;;0.73;0.73;;;-0.50;99.90;;;;;;4973914;28;20208;-75
2022/01/05 10:24:04;;;;;;;0.80;0.80;;;-0.50;99.90;;;;;;5006446;28;20206;-75
2022/01/05 10:26:33;;;;;;;0.70;0.70;;;-0.60;99.90;;;;;;5033641;28;20201;-75
2022/01/05 10:29:00;;;;;;;0.80;0.80;;;-0.60;99.90;;;;;;5033459;28;20281;-75
2022/01/05 10:31:32;;;;;;;0.60;0.60;;;-0.70;99.90;;;;;;5033184;28;20206;-74
2022/01/05 10:33:58;;;;;;;0.70;0.70;;;-0.80;99.90;;;;;;5034791;28;20209;-74
2022/01/05 10:36:41;;;;;;;0.90;0.90;;;-0.90;99.90;;;;;;5033292;28;20202;-75
2022/01/05 10:39:06;;;;;;;0.63;0.63;;;-0.90;99.90;;;;;;5044099;28;20727;-75
2022/01/05 10:41:37;;;;;;;0.70;0.70;;;-1.00;99.90;;;;;;5073024;28;20280;-76
2022/01/05 10:44:18;;;;;;;0.80;0.80;;;-1.10;99.90;;;;;;5071773;28;20199;-75
2022/01/05 10:46:58;;;;;;;0.80;0.80;;;-1.20;99.90;;;;;;5055576;28;20213;-77
2022/01/05 10:49:40;;;;;;;0.75;0.75;;;-1.20;99.90;;;;;;5074306;28;20199;-76
2022/01/05 10:52:24;;;;;;;0.73;0.73;;;-1.20;99.90;;;;;;5056864;28;20554;-76
2022/01/05 10:54:50;;;;;;;0.80;0.80;;;-1.20;99.90;;;;;;5073416;28;20201;-76
2022/01/05 10:57:17;;;;;;;0.80;0.80;;;-1.20;99.90;;;;;;5055783;28;20821;-76
2022/01/05 10:59:48;;;;;;;0.77;0.77;;;-1.20;99.90;;;;;;5054948;28;20204;-75
2022/01/05 11:02:34;;;;;;;0.63;0.63;;;-1.20;99.90;;;;;;5072854;28;20209;-75
2022/01/05 11:05:09;;;;;;;0.70;0.70;;;-1.20;99.90;;;;;;5055010;28;20192;-76
2022/01/05 11:07:39;;;;;;;0.80;0.80;;;-1.30;99.90;;;;;;5056825;28;20211;-76
2022/01/05 11:10:16;;;;;;;0.70;0.70;;;-1.30;99.90;;;;;;5056869;28;20197;-76
2022/01/05 11:13:00;;;;;;;0.80;0.80;;;-1.40;99.90;;;;;;5072655;28;20200;-76
2022/01/05 11:15:30;;;;;;;0.75;0.75;;;-1.50;99.90;;;;;;5072578;28;20205;-75
2022/01/05 11:18:09;;;;;;;0.82;0.82;;;-1.60;99.90;;;;;;5055490;28;20209;-75
2022/01/05 11:21:01;;;;;;;0.70;0.70;;;-1.70;99.90;;;;;;5056610;28;20210;-75
2022/01/05 11:23:30;;;;;;;0.70;0.70;;;-1.70;99.90;;;;;;5072417;28;20201;-75
2022/01/05 11:25:58;;;;;;;0.75;0.75;;;-1.70;99.90;;;;;;5072695;28;20232;-76
2022/01/05 11:28:25;;;;;;;0.80;0.80;;;-1.70;99.90;;;;;;5073446;28;20742;-75
2022/01/05 11:30:53;;;;;;;0.80;0.80;;;-1.70;99.90;;;;;;5056636;28;20659;-75
2022/01/05 11:33:20;;;;;;;0.80;0.80;;;-1.70;99.90;;;;;;5055474;28;20200;-75
2022/01/05 11:35:46;;;;;;;0.60;0.60;;;-1.70;99.90;;;;;;5072335;28;20274;-76
2022/01/05 11:38:13;;;;;;;0.80;0.80;;;-1.70;99.90;;;;;;5056328;28;20215;-75
2022/01/05 11:40:45;;;;;;;0.80;0.80;;;-1.70;99.90;;;;;;5053477;28;20232;-76
2022/01/05 11:43:19;;;;;;;0.70;0.70;;;-1.70;99.90;;;;;;5072338;28;20571;-75
2022/01/05 11:45:45;;;;;;;0.77;0.77;;;-1.80;99.90;;;;;;5073275;28;20655;-75
2022/01/05 11:48:16;;;;;;;0.80;0.80;;;-1.90;99.90;;;;;;5072044;28;20258;-75
2022/01/05 11:50:56;;;;;;;0.80;0.80;;;-2.00;99.90;;;;;;5072926;28;20262;-75
2022/01/05 11:53:41;;;;;;;0.85;0.85;;;-2.10;99.90;;;;;;5070869;28;20300;-75
2022/01/05 11:56:12;;;;;;;0.80;0.80;;;-2.30;99.90;;;;;;5071956;28;20244;-75
2022/01/05 11:58:50;;;;;;;0.80;0.80;;;-2.50;99.90;;;;;;5041597;28;20215;-75
2022/01/05 12:01:20;;;;;;;0.80;0.80;;;-2.60;99.90;;;;;;5056011;28;20197;-76
2022/01/05 12:03:57;;;;;;;0.90;0.90;;;-2.70;99.90;;;;;;5072072;28;20197;-76
2022/01/05 12:06:31;;;;;;;0.80;0.80;;;-2.90;99.90;;;;;;5055786;28;20202;-75
2022/01/05 12:09:03;;;;;;;0.80;0.80;;;-2.90;99.90;;;;;;5055120;28;20574;-76
2022/01/05 12:11:41;;;;;;;0.80;0.80;;;-3.00;99.90;;;;;;5071935;28;20220;-75
2022/01/05 12:14:19;;;;;;;0.80;0.80;;;-3.00;99.90;;;;;;5071650;28;20310;-76
2022/01/05 12:17:00;;;;;;;0.70;0.70;;;-3.00;99.90;;;;;;5071475;28;20215;-74
2022/01/05 12:19:37;;;;;;;0.90;0.90;;;-3.00;99.90;;;;;;5072359;28;20212;-75
2022/01/05 12:22:24;;;;;;;0.80;0.80;;;-3.10;99.90;;;;;;5071392;28;20203;-75
2022/01/05 12:24:56;;;;;;;0.90;0.90;;;-3.10;99.90;;;;;;5055647;28;20339;-75
2022/01/05 12:27:26;;;;;;;0.90;0.90;;;-3.20;99.90;;;;;;5071231;28;20205;-74
2022/01/05 12:29:53;;;;;;;0.85;0.85;;;-3.20;99.90;;;;;;5072396;28;20200;-74
2022/01/05 12:32:30;;;;;;;0.90;0.90;;;-3.20;99.90;;;;;;5072604;28;20223;-74
2022/01/05 12:34:58;;;;;;;0.90;0.90;;;-3.30;99.90;;;;;;5072574;28;20197;-73
2022/01/05 12:37:42;;;;;;;0.80;0.80;;;-3.30;99.90;;;;;;5070184;28;20233;-73
2022/01/05 12:40:23;;;;;;;0.80;0.80;;;-3.40;99.90;;;;;;5054452;28;20216;-74
2022/01/05 12:43:09;;;;;;;0.90;0.90;;;-3.50;99.90;;;;;;5071408;28;20695;-75
2022/01/05 12:45:49;;;;;;;0.80;0.80;;;-3.60;99.90;;;;;;5070626;28;20205;-75
2022/01/05 12:48:33;;;;;;;1.00;1.00;;;-3.60;99.90;;;;;;5054279;28;20210;-74
2022/01/05 12:51:14;;;;;;;0.90;0.90;;;-3.60;99.90;;;;;;5052388;28;20291;-75
2022/01/05 12:53:56;;;;;;;0.90;0.90;;;-3.60;99.90;;;;;;5071085;28;20274;-75
2022/01/05 12:56:23;;;;;;;0.90;0.90;;;-3.50;99.90;;;;;;5072098;28;20626;-75
2022/01/05 12:58:51;;;;;;;0.80;0.80;;;-3.50;99.90;;;;;;5066666;28;20679;-76